Time;durP1;ratioP1;P1;durP2;ratioP2;P2;SDS_P1;SDS_P2;PMS_P1;PMS_P2;Temp;Humidity;BMP_temperature;BMP_pressure;BME280_temperature;BME280_humidity;BME280_pressure;Samples;Min_cycle;Max_cycle;Signal;HPM_P1;HPM_P2
2022/03/15 00:00:20;;;;;;;5.30;3.17;;;15.00;58.40;;;;;;2045518;28;20193;-76
2022/03/15 00:01:19;;;;;;;4.78;3.08;;;15.00;58.30;;;;;;2044871;28;20177;-75
2022/03/15 00:02:17;;;;;;;4.27;3.00;;;15.10;58.40;;;;;;2045385;28;20259;-76
2022/03/15 00:03:16;;;;;;;6.63;3.73;;;15.10;58.30;;;;;;2044641;28;20435;-76
2022/03/15 00:04:14;;;;;;;5.93;3.50;;;15.00;58.40;;;;;;2045299;28;20174;-75
2022/03/15 00:05:13;;;;;;;5.77;3.60;;;15.00;58.40;;;;;;2053459;27;20205;-76
2022/03/15 00:06:12;;;;;;;5.83;2.90;;;15.00;58.30;;;;;;2054000;27;20177;-76
2022/03/15 00:07:13;;;;;;;8.50;3.70;;;15.00;58.30;;;;;;2054020;27;20177;-76
2022/03/15 00:08:12;;;;;;;6.45;3.42;;;15.00;58.30;;;;;;2053998;27;20584;-76
2022/03/15 00:09:11;;;;;;;4.50;3.70;;;15.00;58.40;;;;;;2054052;27;20193;-76
2022/03/15 00:10:10;;;;;;;3.80;2.80;;;15.10;58.40;;;;;;2054047;27;20505;-76
2022/03/15 00:11:09;;;;;;;5.35;3.00;;;15.00;58.30;;;;;;2054186;27;20169;-76
2022/03/15 00:12:09;;;;;;;5.10;3.20;;;15.10;58.40;;;;;;2053955;27;20207;-76
2022/03/15 00:13:07;;;;;;;4.25;2.88;;;15.00;58.30;;;;;;2053959;27;20170;-76
2022/03/15 00:14:08;;;;;;;3.70;2.93;;;15.10;58.30;;;;;;2053903;27;20180;-76
2022/03/15 00:15:08;;;;;;;5.25;3.28;;;15.00;58.30;;;;;;2054122;27;20157;-75
2022/03/15 00:16:08;;;;;;;5.00;2.97;;;15.00;58.30;;;;;;2053925;27;20177;-75
2022/03/15 00:17:07;;;;;;;14.77;3.63;;;15.00;58.30;;;;;;2054148;27;20157;-76
2022/03/15 00:18:05;;;;;;;7.43;3.70;;;15.10;58.30;;;;;;2044938;28;20709;-76
2022/03/15 00:19:04;;;;;;;5.90;3.57;;;15.00;58.30;;;;;;2045421;28;20161;-75
2022/03/15 00:20:05;;;;;;;5.10;3.60;;;15.10;58.40;;;;;;2053548;27;20173;-76
2022/03/15 00:21:05;;;;;;;3.63;3.22;;;15.00;58.40;;;;;;2053952;27;20226;-75
2022/03/15 00:22:04;;;;;;;8.02;3.35;;;15.00;58.40;;;;;;2053918;27;20200;-76
2022/03/15 00:23:04;;;;;;;6.57;3.88;;;15.10;58.50;;;;;;2053967;27;20177;-76
2022/03/15 00:24:04;;;;;;;3.88;3.13;;;15.00;58.40;;;;;;2053988;27;20177;-76
2022/03/15 00:25:08;;;;;;;4.85;3.10;;;15.00;58.40;;;;;;2054015;27;20173;-75
2022/03/15 00:26:07;;;;;;;6.60;3.55;;;15.00;58.30;;;;;;2054014;27;20158;-75
2022/03/15 00:27:06;;;;;;;5.55;3.72;;;15.10;58.50;;;;;;2053887;27;20161;-75
2022/03/15 00:28:05;;;;;;;5.63;3.95;;;15.00;58.40;;;;;;2053870;27;20169;-77
2022/03/15 00:29:03;;;;;;;4.43;3.20;;;15.00;58.30;;;;;;2053958;27;20204;-76
2022/03/15 00:30:05;;;;;;;6.70;3.33;;;15.00;58.40;;;;;;2053991;27;20169;-76
2022/03/15 00:31:04;;;;;;;5.85;4.05;;;15.10;58.50;;;;;;2053973;27;20317;-76
2022/03/15 00:32:05;;;;;;;6.00;3.50;;;15.00;58.40;;;;;;2044999;28;20418;-76
2022/03/15 00:33:03;;;;;;;6.63;3.67;;;15.00;58.40;;;;;;2045257;28;20561;-76
2022/03/15 00:34:02;;;;;;;3.50;3.00;;;15.10;58.40;;;;;;2053689;27;20176;-76
2022/03/15 00:35:02;;;;;;;3.40;3.00;;;15.10;58.40;;;;;;2054048;27;20172;-76
2022/03/15 00:36:01;;;;;;;3.97;3.35;;;15.00;58.40;;;;;;2045009;28;20180;-76
2022/03/15 00:36:59;;;;;;;5.20;3.80;;;15.00;58.30;;;;;;2045144;28;20178;-76
2022/03/15 00:37:59;;;;;;;4.40;3.77;;;15.00;58.30;;;;;;2052722;27;20616;-76
2022/03/15 00:38:57;;;;;;;4.35;3.25;;;15.00;58.40;;;;;;2053433;27;20587;-75
2022/03/15 00:39:56;;;;;;;4.13;3.03;;;15.00;58.40;;;;;;2053843;27;20188;-76
2022/03/15 00:40:55;;;;;;;3.30;2.90;;;15.00;58.40;;;;;;2053868;27;20173;-75
2022/03/15 00:41:54;;;;;;;4.85;3.53;;;15.00;58.40;;;;;;2053868;27;20193;-76
2022/03/15 00:42:53;;;;;;;5.83;3.50;;;15.00;58.40;;;;;;2053786;27;20169;-76
2022/03/15 00:43:51;;;;;;;4.18;2.90;;;15.00;58.40;;;;;;2053857;27;20164;-76
2022/03/15 00:44:50;;;;;;;3.80;2.87;;;15.00;58.40;;;;;;2053810;27;20176;-76
2022/03/15 00:45:49;;;;;;;5.00;3.30;;;15.00;58.30;;;;;;2053822;27;20173;-76
2022/03/15 00:46:47;;;;;;;4.37;3.40;;;15.00;58.40;;;;;;2053831;27;20165;-76
2022/03/15 00:47:45;;;;;;;4.17;3.20;;;15.00;58.50;;;;;;2053764;27;20165;-76
2022/03/15 00:48:44;;;;;;;4.63;3.63;;;15.00;58.50;;;;;;2053820;27;20570;-76
2022/03/15 00:49:43;;;;;;;7.07;3.80;;;15.00;58.40;;;;;;2044791;28;20211;-76
2022/03/15 00:50:41;;;;;;;5.87;3.70;;;15.00;58.40;;;;;;2044964;28;20178;-75
2022/03/15 00:51:40;;;;;;;6.93;3.33;;;15.00;58.40;;;;;;2053146;27;20187;-75
2022/03/15 00:52:39;;;;;;;4.85;3.33;;;15.00;58.40;;;;;;2053752;27;20649;-76
2022/03/15 00:53:38;;;;;;;4.07;3.50;;;15.00;58.40;;;;;;2053210;27;20166;-75
2022/03/15 00:54:36;;;;;;;3.77;3.30;;;15.00;58.40;;;;;;2053976;27;20227;-75
2022/03/15 00:55:35;;;;;;;6.00;3.57;;;15.00;58.40;;;;;;2044844;28;20287;-75
2022/03/15 00:56:33;;;;;;;5.00;3.10;;;15.00;58.40;;;;;;2044818;28;20737;-75
2022/03/15 00:57:33;;;;;;;5.13;3.33;;;15.00;58.40;;;;;;2044964;28;20299;-75
2022/03/15 00:58:31;;;;;;;4.28;3.40;;;15.00;58.50;;;;;;2044532;28;20649;-75
2022/03/15 00:59:30;;;;;;;4.50;3.00;;;15.00;58.50;;;;;;2045025;28;20169;-75
2022/03/15 01:00:31;;;;;;;4.50;3.27;;;15.00;58.40;;;;;;2053249;27;20188;-75
2022/03/15 01:01:29;;;;;;;3.88;3.03;;;15.00;58.40;;;;;;2053583;27;20197;-75
2022/03/15 01:02:28;;;;;;;5.17;3.30;;;15.10;58.50;;;;;;2053796;27;20181;-75
2022/03/15 01:03:26;;;;;;;4.90;3.47;;;15.00;58.50;;;;;;2053597;27;20177;-77
2022/03/15 01:04:25;;;;;;;4.80;3.70;;;14.90;58.40;;;;;;2053646;27;20660;-76
2022/03/15 01:05:24;;;;;;;8.10;4.60;;;15.00;58.50;;;;;;2053493;27;20201;-76
2022/03/15 01:06:22;;;;;;;5.17;4.03;;;15.00;58.50;;;;;;2053600;27;20403;-75
2022/03/15 01:07:21;;;;;;;4.37;3.07;;;15.00;58.40;;;;;;2053671;27;20197;-76
2022/03/15 01:08:19;;;;;;;5.03;3.40;;;15.00;58.50;;;;;;2044755;28;20165;-76
2022/03/15 01:09:18;;;;;;;7.17;4.17;;;15.00;58.50;;;;;;2044986;28;20249;-76
2022/03/15 01:10:18;;;;;;;4.77;2.83;;;15.00;58.50;;;;;;2053038;27;20176;-76
2022/03/15 01:11:16;;;;;;;4.57;3.47;;;15.00;58.50;;;;;;2053718;27;20175;-76
2022/03/15 01:12:15;;;;;;;4.40;3.60;;;15.00;58.50;;;;;;2053547;27;20193;-75
2022/03/15 01:13:15;;;;;;;6.83;3.37;;;15.00;58.50;;;;;;2053653;27;20172;-75
2022/03/15 01:14:13;;;;;;;3.55;2.70;;;15.00;58.50;;;;;;2053628;27;20554;-76
2022/03/15 01:15:12;;;;;;;6.40;3.53;;;15.00;58.50;;;;;;2053657;27;20181;-75
2022/03/15 01:16:10;;;;;;;4.33;3.17;;;15.00;59.20;;;;;;2053682;27;20225;-76
2022/03/15 01:17:09;;;;;;;3.77;3.30;;;15.00;58.60;;;;;;2044656;28;20280;-75
2022/03/15 01:18:08;;;;;;;5.10;3.20;;;15.00;58.50;;;;;;2044679;28;20229;-75
2022/03/15 01:19:08;;;;;;;6.27;3.70;;;15.00;58.40;;;;;;2052524;27;20625;-75
2022/03/15 01:20:08;;;;;;;4.43;3.10;;;15.00;58.40;;;;;;2053132;27;20170;-75
2022/03/15 01:21:07;;;;;;;5.18;3.55;;;15.00;58.40;;;;;;2045487;28;20196;-75
2022/03/15 01:22:06;;;;;;;5.27;3.80;;;15.00;58.40;;;;;;2044556;28;20193;-75
2022/03/15 01:23:04;;;;;;;4.93;3.37;;;15.00;58.50;;;;;;2044863;28;20502;-75
2022/03/15 01:24:05;;;;;;;5.23;3.40;;;15.00;58.50;;;;;;2045453;28;20189;-75
2022/03/15 01:25:04;;;;;;;5.10;3.33;;;15.00;58.40;;;;;;2046489;28;20250;-76
2022/03/15 01:26:03;;;;;;;5.10;3.50;;;15.00;58.50;;;;;;2045686;28;20228;-75
2022/03/15 01:27:01;;;;;;;4.13;3.00;;;15.00;58.40;;;;;;2045741;28;20910;-76
2022/03/15 01:28:00;;;;;;;4.70;3.47;;;15.00;58.40;;;;;;2045788;28;20170;-76
2022/03/15 01:28:59;;;;;;;4.60;3.07;;;15.00;58.50;;;;;;2046801;28;20239;-75
2022/03/15 01:29:58;;;;;;;6.18;3.83;;;15.00;58.50;;;;;;2050008;28;20215;-75
2022/03/15 01:30:56;;;;;;;5.43;3.67;;;15.00;58.50;;;;;;2054886;28;20222;-75
2022/03/15 01:31:55;;;;;;;4.40;3.80;;;15.00;58.50;;;;;;2055161;28;20237;-76
2022/03/15 01:32:54;;;;;;;4.97;3.67;;;15.00;58.40;;;;;;2055156;28;20153;-76
2022/03/15 01:33:52;;;;;;;3.57;2.77;;;15.00;58.40;;;;;;2053790;28;20229;-75
2022/03/15 01:34:51;;;;;;;6.90;3.60;;;15.00;58.50;;;;;;2046600;28;20295;-76
2022/03/15 01:35:49;;;;;;;5.30;3.70;;;15.00;58.40;;;;;;2046795;28;20170;-75
2022/03/15 01:36:47;;;;;;;6.53;3.67;;;15.00;58.50;;;;;;2047071;28;20192;-76
2022/03/15 01:37:48;;;;;;;7.40;4.17;;;15.00;58.40;;;;;;2046279;28;20170;-75
2022/03/15 01:38:47;;;;;;;5.40;3.42;;;14.80;58.30;;;;;;2045277;28;20645;-76
2022/03/15 01:39:45;;;;;;;4.55;3.35;;;15.00;58.50;;;;;;2045311;28;20201;-75
2022/03/15 01:40:44;;;;;;;5.30;3.70;;;15.10;58.60;;;;;;2045144;28;20170;-76
2022/03/15 01:41:44;;;;;;;5.40;4.13;;;15.00;58.50;;;;;;2043994;28;20224;-75
2022/03/15 01:42:42;;;;;;;4.10;3.08;;;14.90;58.50;;;;;;2044712;28;20696;-76
2022/03/15 01:43:41;;;;;;;3.40;2.83;;;15.00;58.60;;;;;;2045066;28;20188;-76
2022/03/15 01:44:46;;;;;;;6.63;3.77;;;15.00;58.60;;;;;;2045181;28;20173;-75
2022/03/15 01:45:44;;;;;;;11.00;3.80;;;15.00;58.60;;;;;;2045116;28;20527;-75
2022/03/15 01:46:44;;;;;;;5.13;3.77;;;15.00;58.60;;;;;;2045044;28;20184;-76
2022/03/15 01:47:43;;;;;;;4.88;3.20;;;15.00;58.60;;;;;;2045081;28;20567;-75
2022/03/15 01:48:42;;;;;;;7.53;4.22;;;15.00;58.60;;;;;;2045007;28;20614;-76
2022/03/15 01:49:42;;;;;;;5.38;3.45;;;15.00;58.60;;;;;;2045103;28;20176;-75
2022/03/15 01:50:40;;;;;;;4.20;3.65;;;15.00;58.60;;;;;;2045215;28;20170;-74
2022/03/15 01:51:40;;;;;;;5.40;3.80;;;15.00;58.60;;;;;;2044972;28;20174;-76
2022/03/15 01:52:39;;;;;;;5.53;4.13;;;15.00;58.60;;;;;;2044360;28;20161;-76
2022/03/15 01:53:37;;;;;;;5.40;4.23;;;15.00;58.70;;;;;;2044380;28;20170;-75
2022/03/15 01:54:37;;;;;;;10.73;3.93;;;15.00;58.60;;;;;;2052189;27;20239;-75
2022/03/15 01:55:35;;;;;;;7.13;3.90;;;15.00;58.60;;;;;;2045426;27;20170;-75
2022/03/15 01:56:34;;;;;;;4.20;3.50;;;15.00;58.60;;;;;;2045068;28;20177;-75
2022/03/15 01:57:33;;;;;;;4.60;3.90;;;15.00;58.60;;;;;;2044937;28;20227;-75
2022/03/15 01:58:31;;;;;;;7.87;4.17;;;15.00;58.60;;;;;;2044887;28;20403;-76
2022/03/15 01:59:31;;;;;;;4.87;3.87;;;15.00;58.60;;;;;;2045010;28;20550;-76
2022/03/15 02:00:31;;;;;;;6.10;3.80;;;15.00;58.60;;;;;;2045086;28;20174;-75
2022/03/15 02:01:30;;;;;;;6.93;3.47;;;15.00;58.70;;;;;;2044894;28;20194;-76
2022/03/15 02:02:28;;;;;;;5.30;4.10;;;15.00;58.60;;;;;;2044947;28;20261;-76
2022/03/15 02:03:27;;;;;;;5.10;3.90;;;15.10;58.80;;;;;;2045075;28;20315;-75
2022/03/15 02:04:25;;;;;;;5.27;4.27;;;15.00;58.70;;;;;;2045140;28;20515;-76
2022/03/15 02:05:24;;;;;;;6.23;3.70;;;15.00;58.60;;;;;;2044063;28;20561;-75
2022/03/15 02:06:23;;;;;;;4.93;3.30;;;15.00;58.70;;;;;;2044057;28;20177;-76
2022/03/15 02:07:21;;;;;;;7.53;4.33;;;15.00;58.60;;;;;;2044451;28;20177;-77
2022/03/15 02:08:20;;;;;;;5.83;3.60;;;15.00;58.70;;;;;;2044888;28;20177;-77
2022/03/15 02:09:18;;;;;;;7.67;4.70;;;15.00;58.60;;;;;;2044877;28;20243;-75
2022/03/15 02:10:17;;;;;;;6.10;3.70;;;15.00;58.70;;;;;;2044933;28;20169;-75
2022/03/15 02:11:15;;;;;;;5.00;4.03;;;15.00;58.70;;;;;;2045036;28;20249;-76
2022/03/15 02:12:14;;;;;;;6.40;4.37;;;15.00;58.70;;;;;;2044899;28;20283;-76
2022/03/15 02:13:12;;;;;;;6.27;3.70;;;15.00;59.10;;;;;;2044830;28;20665;-75
2022/03/15 02:14:11;;;;;;;4.97;3.20;;;15.00;58.70;;;;;;2044901;28;20166;-76
2022/03/15 02:15:10;;;;;;;4.73;3.33;;;15.00;58.80;;;;;;2044883;28;20201;-76
2022/03/15 02:16:08;;;;;;;7.40;4.00;;;15.00;58.80;;;;;;2045019;28;20165;-75
2022/03/15 02:17:06;;;;;;;5.83;4.10;;;15.00;58.70;;;;;;2044894;28;20178;-75
2022/03/15 02:18:05;;;;;;;4.73;3.80;;;15.00;58.70;;;;;;2047681;27;20301;-75
2022/03/15 02:19:05;;;;;;;5.80;3.77;;;15.00;58.70;;;;;;2053163;27;20158;-76
2022/03/15 02:20:08;;;;;;;7.30;4.50;;;15.00;58.70;;;;;;2053049;27;20398;-75
2022/03/15 02:21:08;;;;;;;6.07;3.75;;;15.00;58.70;;;;;;2053042;27;20205;-75
2022/03/15 02:22:07;;;;;;;7.13;4.32;;;15.00;58.80;;;;;;2053013;27;20189;-75
2022/03/15 02:23:05;;;;;;;4.67;3.50;;;15.00;58.80;;;;;;2052983;27;20169;-76
2022/03/15 02:24:04;;;;;;;5.93;3.90;;;15.00;58.90;;;;;;2053028;27;20698;-76
2022/03/15 02:25:03;;;;;;;6.05;4.50;;;15.00;58.80;;;;;;2052936;27;20169;-76
2022/03/15 02:26:02;;;;;;;6.33;4.33;;;15.00;58.80;;;;;;2053084;27;20180;-76
2022/03/15 02:27:01;;;;;;;6.10;4.07;;;15.00;58.80;;;;;;2053045;27;20434;-76
2022/03/15 02:28:00;;;;;;;6.47;4.03;;;15.00;58.90;;;;;;2052965;27;20497;-76
2022/03/15 02:28:59;;;;;;;7.17;4.70;;;15.00;58.80;;;;;;2044181;28;20177;-75
2022/03/15 02:29:58;;;;;;;7.43;3.97;;;15.00;58.80;;;;;;2044232;28;20477;-76
2022/03/15 02:30:57;;;;;;;5.40;3.60;;;15.00;58.90;;;;;;2052562;27;20165;-75
2022/03/15 02:31:55;;;;;;;6.20;4.00;;;15.00;58.80;;;;;;2052854;27;20219;-75
2022/03/15 02:32:55;;;;;;;5.50;3.80;;;14.80;58.70;;;;;;2052988;27;20177;-75
2022/03/15 02:33:54;;;;;;;6.45;3.97;;;15.00;58.90;;;;;;2053041;27;20214;-75
2022/03/15 02:34:52;;;;;;;6.60;4.07;;;15.10;59.00;;;;;;2053111;27;20173;-76
2022/03/15 02:35:51;;;;;;;7.23;4.67;;;15.00;59.00;;;;;;2052873;27;20169;-76
2022/03/15 02:36:50;;;;;;;6.57;4.20;;;15.00;59.00;;;;;;2052847;27;20562;-75
2022/03/15 02:37:48;;;;;;;4.80;3.77;;;15.00;59.00;;;;;;2053004;27;20179;-75
2022/03/15 02:38:47;;;;;;;5.90;4.50;;;15.00;59.10;;;;;;2052989;27;20164;-75
2022/03/15 02:39:45;;;;;;;5.50;4.10;;;15.00;59.10;;;;;;2052896;27;20237;-76
2022/03/15 02:40:44;;;;;;;8.40;3.83;;;15.00;59.10;;;;;;2052836;27;20253;-75
2022/03/15 02:41:43;;;;;;;7.67;4.07;;;15.00;59.20;;;;;;2052690;27;20244;-75
2022/03/15 02:42:41;;;;;;;6.63;3.70;;;15.00;59.30;;;;;;2052868;27;20623;-76
2022/03/15 02:43:41;;;;;;;5.30;4.07;;;15.00;59.20;;;;;;2052849;27;20434;-76
2022/03/15 02:44:40;;;;;;;5.68;3.90;;;15.00;59.30;;;;;;2052745;27;20188;-76
2022/03/15 02:45:40;;;;;;;7.00;4.47;;;15.00;59.30;;;;;;2052765;27;20211;-76
2022/03/15 02:46:39;;;;;;;8.25;4.03;;;15.00;59.30;;;;;;2052805;27;20671;-76
2022/03/15 02:47:40;;;;;;;6.63;4.07;;;15.00;59.40;;;;;;2052713;27;20181;-75
2022/03/15 02:48:39;;;;;;;7.13;4.50;;;15.00;59.50;;;;;;2052798;27;20161;-75
2022/03/15 02:49:38;;;;;;;6.43;3.87;;;15.00;59.70;;;;;;2052857;27;20180;-76
2022/03/15 02:50:36;;;;;;;7.95;4.72;;;15.00;59.90;;;;;;2052752;27;20477;-76
2022/03/15 02:51:35;;;;;;;5.83;3.60;;;15.00;60.20;;;;;;2052829;27;20169;-76
2022/03/15 02:52:34;;;;;;;8.30;4.10;;;15.00;60.90;;;;;;2043978;28;20174;-76
2022/03/15 02:53:32;;;;;;;6.60;3.80;;;15.00;63.30;;;;;;2044054;28;20446;-76
2022/03/15 02:54:31;;;;;;;6.50;4.20;;;15.00;68.30;;;;;;2052281;27;20244;-76
2022/03/15 02:55:32;;;;;;;6.67;4.37;;;15.00;65.80;;;;;;2052801;27;20684;-75
2022/03/15 02:56:33;;;;;;;7.40;4.35;;;15.10;71.10;;;;;;2052755;27;20370;-75
2022/03/15 02:57:31;;;;;;;6.50;4.45;;;14.90;60.20;;;;;;2052737;27;20199;-75
2022/03/15 02:58:30;;;;;;;5.67;3.93;;;15.00;59.90;;;;;;2052732;27;20538;-75
2022/03/15 02:59:29;;;;;;;5.85;4.03;;;15.00;59.50;;;;;;2052887;27;20277;-75
2022/03/15 03:00:28;;;;;;;5.57;3.85;;;15.00;59.50;;;;;;2043888;28;20173;-75
2022/03/15 03:01:26;;;;;;;5.17;3.40;;;14.90;59.30;;;;;;2035747;28;20174;-75
2022/03/15 03:02:25;;;;;;;5.83;3.83;;;14.90;59.30;;;;;;2043432;28;20189;-75
2022/03/15 03:03:25;;;;;;;5.60;3.57;;;14.90;59.40;;;;;;2052336;27;20172;-76
2022/03/15 03:04:23;;;;;;;7.50;4.00;;;14.90;59.50;;;;;;2052774;27;20410;-76
2022/03/15 03:05:22;;;;;;;5.17;3.43;;;14.90;59.50;;;;;;2052678;27;20211;-76
2022/03/15 03:06:21;;;;;;;5.10;3.50;;;14.90;59.50;;;;;;2052744;27;20180;-76
2022/03/15 03:07:19;;;;;;;4.03;3.10;;;14.90;59.60;;;;;;2052736;27;20197;-75
2022/03/15 03:08:17;;;;;;;7.53;3.57;;;14.90;59.80;;;;;;2052817;28;20201;-75
2022/03/15 03:09:16;;;;;;;6.23;3.73;;;14.90;60.40;;;;;;2052609;28;20253;-75
2022/03/15 03:10:16;;;;;;;6.70;4.33;;;14.90;69.00;;;;;;2052734;27;20240;-76
2022/03/15 03:11:15;;;;;;;6.55;3.50;;;14.90;60.80;;;;;;2052705;27;20169;-75
2022/03/15 03:12:15;;;;;;;4.67;3.77;;;14.90;60.70;;;;;;2052711;28;20563;-76
2022/03/15 03:13:14;;;;;;;7.40;3.25;;;14.90;61.00;;;;;;2052649;28;20218;-76
2022/03/15 03:14:16;;;;;;;5.77;4.20;;;14.90;69.90;;;;;;2052676;28;20207;-75
2022/03/15 03:15:17;;;;;;;7.03;3.65;;;14.90;60.20;;;;;;2043970;28;20189;-75
2022/03/15 03:16:16;;;;;;;4.65;3.45;;;14.90;59.60;;;;;;2044246;28;20234;-75
2022/03/15 03:17:14;;;;;;;7.43;4.30;;;14.90;59.50;;;;;;2052507;27;20229;-75
2022/03/15 03:18:13;;;;;;;5.80;3.43;;;14.80;59.40;;;;;;2052622;28;21063;-75
2022/03/15 03:19:11;;;;;;;4.60;3.30;;;14.90;59.30;;;;;;2043901;28;20538;-76
2022/03/15 03:20:17;;;;;;;5.77;3.67;;;14.90;59.30;;;;;;2044044;28;20291;-76
2022/03/15 03:21:15;;;;;;;5.78;4.03;;;14.90;59.30;;;;;;2043756;28;20273;-76
2022/03/15 03:22:14;;;;;;;4.90;3.67;;;14.90;59.40;;;;;;2043863;28;20202;-76
2022/03/15 03:23:14;;;;;;;5.60;3.53;;;14.90;59.40;;;;;;2052233;28;20184;-76
2022/03/15 03:24:19;;;;;;;6.80;4.32;;;14.90;59.50;;;;;;2052875;28;20177;-76
2022/03/15 03:25:18;;;;;;;6.80;4.03;;;14.90;59.50;;;;;;2052615;28;20530;-76
2022/03/15 03:26:17;;;;;;;4.35;3.55;;;14.90;59.70;;;;;;2043736;28;20181;-76
2022/03/15 03:27:16;;;;;;;4.97;3.55;;;14.90;59.90;;;;;;2044012;28;20172;-75
2022/03/15 03:28:14;;;;;;;4.63;3.60;;;14.90;60.20;;;;;;2052185;28;20595;-76
2022/03/15 03:29:13;;;;;;;4.27;3.60;;;14.90;61.40;;;;;;2052417;28;20706;-76
2022/03/15 03:30:13;;;;;;;4.85;3.88;;;16.20;68.40;;;;;;2052841;28;20241;-76
2022/03/15 03:31:11;;;;;;;5.68;3.47;;;14.90;61.30;;;;;;2052770;28;20544;-75
2022/03/15 03:32:10;;;;;;;5.57;3.87;;;14.90;60.50;;;;;;2052620;28;20184;-75
2022/03/15 03:33:08;;;;;;;4.93;3.40;;;15.00;62.10;;;;;;2052649;28;20394;-75
2022/03/15 03:34:08;;;;;;;5.53;3.77;;;14.90;69.10;;;;;;2052623;28;20179;-75
2022/03/15 03:35:07;;;;;;;5.07;3.85;;;14.90;60.00;;;;;;2052735;28;20568;-75
2022/03/15 03:36:06;;;;;;;5.22;3.90;;;14.90;59.60;;;;;;2052631;28;20260;-76
2022/03/15 03:37:05;;;;;;;5.57;3.17;;;14.90;59.50;;;;;;2052648;28;20648;-75
2022/03/15 03:38:05;;;;;;;4.15;2.92;;;14.90;59.50;;;;;;2052750;28;20497;-75
2022/03/15 03:39:06;;;;;;;8.45;4.07;;;14.90;59.40;;;;;;2052686;28;20196;-75
2022/03/15 03:40:07;;;;;;;4.72;3.55;;;14.90;59.40;;;;;;2052674;28;20157;-75
2022/03/15 03:41:07;;;;;;;6.40;3.67;;;14.90;59.40;;;;;;2052657;28;20172;-75
2022/03/15 03:42:06;;;;;;;7.03;3.63;;;14.90;59.50;;;;;;2052632;28;20713;-75
2022/03/15 03:43:04;;;;;;;7.00;4.37;;;14.90;59.50;;;;;;2052618;28;20229;-75
2022/03/15 03:44:04;;;;;;;4.80;3.60;;;14.90;59.60;;;;;;2052523;28;20181;-75
2022/03/15 03:45:04;;;;;;;5.80;3.70;;;14.90;59.70;;;;;;2043685;28;20165;-75
2022/03/15 03:46:03;;;;;;;5.25;3.90;;;14.90;59.80;;;;;;2043790;28;20547;-75
2022/03/15 03:47:03;;;;;;;6.33;4.00;;;14.90;60.30;;;;;;2052451;28;20201;-75
2022/03/15 03:48:01;;;;;;;5.15;3.65;;;14.90;60.90;;;;;;2052486;28;20169;-75
2022/03/15 03:49:00;;;;;;;6.33;3.33;;;15.30;70.00;;;;;;2052579;28;20201;-75
2022/03/15 03:49:58;;;;;;;4.47;3.00;;;14.90;60.10;;;;;;2052378;28;20180;-76
2022/03/15 03:50:58;;;;;;;6.30;3.87;;;14.90;59.90;;;;;;2052564;28;20166;-75
2022/03/15 03:51:58;;;;;;;6.28;3.55;;;14.90;59.70;;;;;;2052419;28;20214;-75
2022/03/15 03:52:56;;;;;;;5.32;3.38;;;14.90;59.80;;;;;;2052531;28;20283;-77
2022/03/15 03:53:54;;;;;;;6.57;4.10;;;14.90;59.90;;;;;;2052511;28;20176;-76
2022/03/15 03:54:53;;;;;;;5.67;3.73;;;14.90;59.90;;;;;;2052480;28;20575;-76
2022/03/15 03:55:51;;;;;;;4.67;3.03;;;14.90;60.20;;;;;;2052600;28;20622;-76
2022/03/15 03:56:51;;;;;;;5.87;3.77;;;14.90;61.20;;;;;;2052598;28;20169;-76
2022/03/15 03:57:51;;;;;;;7.28;4.47;;;14.90;62.10;;;;;;2052602;28;20165;-76
2022/03/15 03:58:50;;;;;;;5.47;3.92;;;14.90;62.80;;;;;;2052634;28;20588;-76
2022/03/15 03:59:48;;;;;;;6.73;4.30;;;15.80;71.30;;;;;;2052440;28;20177;-75
2022/03/15 04:00:46;;;;;;;4.37;3.80;;;14.90;60.00;;;;;;2052488;28;20184;-75
2022/03/15 04:01:45;;;;;;;4.63;3.80;;;14.90;59.60;;;;;;2052536;28;20207;-76
2022/03/15 04:02:43;;;;;;;6.47;3.77;;;14.90;59.60;;;;;;2043659;28;20196;-76
2022/03/15 04:03:42;;;;;;;4.97;3.47;;;14.80;59.70;;;;;;2043861;28;20213;-76
2022/03/15 04:04:41;;;;;;;5.30;3.57;;;14.90;59.90;;;;;;2052022;28;20180;-76
2022/03/15 04:05:40;;;;;;;5.90;3.90;;;14.80;60.70;;;;;;2052616;28;20526;-75
2022/03/15 04:06:39;;;;;;;5.70;3.95;;;15.00;69.50;;;;;;2052618;28;20165;-76
2022/03/15 04:07:41;;;;;;;5.97;3.80;;;14.90;60.60;;;;;;2044095;28;20635;-75
2022/03/15 04:08:39;;;;;;;4.50;3.55;;;14.90;60.00;;;;;;2043732;28;20170;-76
2022/03/15 04:09:39;;;;;;;3.60;3.10;;;14.80;59.80;;;;;;2052583;28;20177;-75
2022/03/15 04:10:38;;;;;;;4.82;3.15;;;14.90;59.80;;;;;;2052502;28;20153;-75
2022/03/15 04:11:40;;;;;;;5.38;3.80;;;14.90;60.20;;;;;;2052522;28;20248;-76
2022/03/15 04:12:39;;;;;;;5.95;3.70;;;14.90;61.10;;;;;;2052648;28;20649;-76
2022/03/15 04:13:40;;;;;;;4.73;2.83;;;15.30;70.80;;;;;;2052694;28;20287;-77
2022/03/15 04:14:39;;;;;;;8.40;4.53;;;14.90;60.80;;;;;;2052598;28;20621;-76
2022/03/15 04:15:37;;;;;;;5.77;3.90;;;14.90;59.30;;;;;;2052648;28;20196;-75
2022/03/15 04:16:36;;;;;;;4.30;2.77;;;14.80;59.00;;;;;;2052885;28;20552;-75
2022/03/15 04:17:35;;;;;;;4.43;3.30;;;14.80;58.90;;;;;;2052619;28;20172;-75
2022/03/15 04:18:33;;;;;;;5.00;3.60;;;14.90;58.90;;;;;;2052721;28;20225;-75
2022/03/15 04:19:32;;;;;;;4.70;3.37;;;14.90;58.90;;;;;;2044003;28;20170;-75
2022/03/15 04:20:32;;;;;;;6.07;4.13;;;14.80;58.90;;;;;;2046739;28;20637;-75
2022/03/15 04:21:30;;;;;;;6.18;3.75;;;14.80;58.90;;;;;;2055141;28;20173;-75
2022/03/15 04:22:29;;;;;;;5.33;3.73;;;14.90;59.00;;;;;;2056315;28;20228;-76
2022/03/15 04:23:27;;;;;;;4.17;3.13;;;14.90;59.10;;;;;;2056068;28;20222;-76
2022/03/15 04:24:26;;;;;;;4.37;3.23;;;14.90;59.10;;;;;;2047122;28;20174;-76
2022/03/15 04:25:25;;;;;;;4.60;3.23;;;14.90;59.10;;;;;;2047137;28;20250;-76
2022/03/15 04:26:25;;;;;;;5.07;3.97;;;14.80;59.00;;;;;;2055675;28;20210;-75
2022/03/15 04:27:24;;;;;;;5.25;3.53;;;14.90;59.20;;;;;;2056216;28;20230;-75
2022/03/15 04:28:22;;;;;;;5.77;3.33;;;14.80;59.30;;;;;;2056203;27;20658;-76
2022/03/15 04:29:21;;;;;;;6.20;3.43;;;14.90;59.70;;;;;;2055574;27;20248;-75
2022/03/15 04:30:19;;;;;;;6.40;3.87;;;14.80;60.60;;;;;;2046139;28;20551;-75
2022/03/15 04:31:18;;;;;;;4.70;3.40;;;14.90;69.30;;;;;;2046347;28;20243;-77
2022/03/15 04:32:18;;;;;;;4.05;3.08;;;14.90;63.10;;;;;;2054518;27;20196;-76
2022/03/15 04:33:16;;;;;;;3.50;3.13;;;14.90;59.60;;;;;;2055262;27;20233;-75
2022/03/15 04:34:15;;;;;;;4.30;2.93;;;14.90;59.50;;;;;;2054529;27;20191;-75
2022/03/15 04:35:14;;;;;;;4.27;3.73;;;14.80;59.30;;;;;;2054274;27;20234;-75
2022/03/15 04:36:12;;;;;;;4.10;3.13;;;14.80;59.30;;;;;;2054376;27;20181;-76
2022/03/15 04:37:11;;;;;;;6.57;3.60;;;14.80;59.30;;;;;;2054367;27;20516;-77
2022/03/15 04:38:10;;;;;;;5.23;3.30;;;14.80;59.70;;;;;;2054174;27;20520;-75
2022/03/15 04:39:08;;;;;;;5.40;3.77;;;14.80;60.80;;;;;;2053956;27;20728;-74
2022/03/15 04:40:08;;;;;;;4.53;3.17;;;16.30;71.00;;;;;;2054010;27;20177;-75
2022/03/15 04:41:06;;;;;;;4.40;2.67;;;14.80;63.90;;;;;;2053837;27;20184;-75
2022/03/15 04:42:05;;;;;;;4.60;3.50;;;14.80;59.60;;;;;;2053868;27;20683;-75
2022/03/15 04:43:04;;;;;;;5.20;3.40;;;14.80;59.50;;;;;;2053883;27;20407;-75
2022/03/15 04:44:03;;;;;;;4.40;3.27;;;14.80;59.60;;;;;;2053943;27;20407;-75
2022/03/15 04:45:01;;;;;;;7.47;3.90;;;14.80;59.60;;;;;;2054962;27;20164;-75
2022/03/15 04:46:00;;;;;;;5.70;3.33;;;14.80;59.80;;;;;;2054367;27;20484;-76
2022/03/15 04:46:59;;;;;;;5.15;3.53;;;14.80;60.00;;;;;;2054378;27;20169;-75
2022/03/15 04:47:58;;;;;;;5.27;2.93;;;14.80;60.30;;;;;;2054647;27;20210;-75
2022/03/15 04:48:56;;;;;;;7.13;4.33;;;14.80;68.00;;;;;;2054734;27;20967;-75
2022/03/15 04:49:55;;;;;;;3.80;2.90;;;14.80;59.30;;;;;;2054535;27;20706;-76
2022/03/15 04:50:54;;;;;;;4.20;3.00;;;14.80;59.40;;;;;;2045711;28;20688;-74
2022/03/15 04:51:52;;;;;;;4.90;3.30;;;14.80;59.50;;;;;;2037652;28;20190;-75
2022/03/15 04:52:51;;;;;;;4.27;2.93;;;14.80;59.50;;;;;;2037547;28;20174;-75
2022/03/15 04:53:49;;;;;;;6.07;3.90;;;14.80;59.80;;;;;;2046417;28;20524;-76
2022/03/15 04:54:48;;;;;;;6.50;3.80;;;14.80;68.30;;;;;;2055737;27;20276;-75
2022/03/15 04:55:46;;;;;;;5.63;3.00;;;14.80;60.20;;;;;;2056203;27;20169;-76
2022/03/15 04:56:45;;;;;;;4.53;3.60;;;14.80;59.40;;;;;;2056102;27;20157;-75
2022/03/15 04:57:44;;;;;;;3.97;2.70;;;14.80;59.00;;;;;;2056619;27;20249;-76
2022/03/15 04:58:43;;;;;;;4.30;3.20;;;14.80;59.00;;;;;;2057314;27;20165;-76
2022/03/15 04:59:41;;;;;;;5.33;3.50;;;14.80;58.90;;;;;;2057395;27;20430;-75
2022/03/15 05:00:40;;;;;;;3.07;2.77;;;14.80;58.70;;;;;;2057534;27;20407;-76
2022/03/15 05:01:39;;;;;;;4.30;3.53;;;14.80;58.70;;;;;;2048661;28;20566;-74
2022/03/15 05:02:40;;;;;;;6.37;4.10;;;14.80;58.70;;;;;;2049068;28;20715;-75
2022/03/15 05:03:39;;;;;;;4.55;3.67;;;14.80;58.70;;;;;;2057307;27;20169;-74
2022/03/15 05:04:37;;;;;;;5.77;3.20;;;14.80;58.60;;;;;;2057845;27;20184;-75
2022/03/15 05:05:36;;;;;;;7.80;4.00;;;14.80;58.50;;;;;;2056886;27;20238;-76
2022/03/15 05:06:39;;;;;;;4.80;3.17;;;14.80;58.50;;;;;;2056998;27;20245;-76